createdAt,value
2019-05-06T05:21:37.828Z,48.20
2019-05-06T05:24:07.131Z,47.40
2019-05-06T05:26:37.298Z,42.70
2019-05-06T05:29:06.653Z,39.60
2019-05-06T05:31:35.744Z,35.60
2019-05-06T05:34:04.856Z,34.50
2019-05-06T05:36:33.937Z,31.60
2019-05-06T05:39:03.469Z,30.70
2019-05-06T05:41:33.701Z,29.80
2019-05-06T05:44:04.471Z,28.50
2019-05-06T05:46:38.121Z,28.30
2019-05-06T05:49:22.560Z,27.80
2019-05-06T05:51:53.998Z,27.00
2019-05-06T05:54:23.314Z,27.40
2019-05-06T05:56:56.188Z,26.90
2019-05-06T05:59:26.720Z,26.70
2019-05-06T06:01:56.101Z,26.90
2019-05-06T06:04:25.474Z,25.80
2019-05-06T06:06:54.880Z,25.50
2019-05-06T06:09:25.704Z,25.70
2019-05-06T06:11:56.497Z,25.30
2019-05-06T06:14:44.441Z,25.50
2019-05-06T06:17:32.567Z,26.00
2019-05-06T06:20:09.436Z,25.20
2019-05-06T06:22:38.658Z,25.80
2019-05-06T06:25:08.981Z,24.90
2019-05-06T06:27:53.521Z,24.50
2019-05-06T06:30:33.522Z,24.50
2019-05-06T06:33:02.783Z,23.50
2019-05-06T06:35:33.510Z,23.80
2019-05-06T06:38:07.745Z,22.80
2019-05-06T06:40:37.353Z,22.70
2019-05-06T06:43:08.024Z,22.50
2019-05-06T06:45:37.578Z,21.40
2019-05-06T06:48:07.042Z,21.00
2019-05-06T06:50:37.049Z,21.20
2019-05-06T06:53:07.426Z,19.50
2019-05-06T06:55:37.112Z,20.60
2019-05-06T06:58:22.768Z,22.30
2019-05-06T07:01:03.400Z,22.00
2019-05-06T07:03:38.309Z,21.30
2019-05-06T07:06:10.357Z,20.60
2019-05-06T07:08:42.617Z,20.30
2019-05-06T07:11:13.070Z,20.10
2019-05-06T07:13:45.225Z,20.20
2019-05-06T07:16:14.410Z,20.60
2019-05-06T07:18:43.507Z,19.80
2019-05-06T07:21:14.245Z,19.10
2019-05-06T07:23:43.180Z,19.30
2019-05-06T07:26:16.665Z,18.60
2019-05-06T07:28:47.196Z,19.40
2019-05-06T07:31:22.214Z,18.80
2019-05-06T07:33:46.993Z,19.40
2019-05-06T07:36:15.992Z,20.10
2019-05-06T07:38:52.562Z,17.80
2019-05-06T07:41:23.517Z,17.60
2019-05-06T07:44:12.814Z,17.80
2019-05-06T07:46:55.526Z,16.40
2019-05-06T07:49:27.321Z,18.60
2019-05-06T07:51:56.421Z,17.90
2019-05-06T07:54:25.511Z,18.20
2019-05-06T07:56:54.606Z,17.20
2019-05-06T07:59:27.333Z,15.80
2019-05-06T08:01:56.489Z,18.90
2019-05-06T08:04:25.579Z,19.20
2019-05-06T08:06:54.620Z,20.60
2019-05-06T08:09:23.672Z,19.70
2019-05-06T08:11:53.160Z,18.60
2019-05-06T08:14:23.749Z,17.80
2019-05-06T08:16:54.505Z,17.00
2019-05-06T08:19:24.753Z,16.40
2019-05-06T08:22:02.758Z,18.50
2019-05-06T08:24:36.357Z,18.10
2019-05-06T08:27:05.457Z,17.70
2019-05-06T08:29:34.649Z,15.40
2019-05-06T08:32:03.648Z,16.10
2019-05-06T08:34:34.287Z,16.90
2019-05-06T08:37:08.075Z,16.30
2019-05-06T08:39:37.271Z,16.30
2019-05-06T08:42:06.368Z,18.00
2019-05-06T08:44:35.464Z,15.60
2019-05-06T08:47:04.660Z,16.80
2019-05-06T08:49:35.425Z,17.60
2019-05-06T08:52:06.126Z,16.80
2019-05-06T08:54:37.857Z,16.40
2019-05-06T08:57:07.083Z,17.70
2019-05-06T08:59:36.076Z,16.80
2019-05-06T09:02:09.206Z,16.70
2019-05-06T09:04:38.230Z,17.60
2019-05-06T09:07:07.455Z,20.40
2019-05-06T09:09:36.547Z,22.50
2019-05-06T09:12:05.641Z,24.20
2019-05-06T09:14:34.739Z,26.80
2019-05-06T09:17:04.346Z,29.50
2019-05-06T09:19:36.717Z,28.00
2019-05-06T09:22:06.937Z,29.50
2019-05-06T09:24:36.033Z,29.40
2019-05-06T09:27:16.428Z,29.80
2019-05-06T09:29:48.047Z,29.00
2019-05-06T09:32:19.493Z,30.00
2019-05-06T09:34:53.193Z,29.10
2019-05-06T09:37:23.550Z,30.30
2019-05-06T09:39:53.444Z,30.40
2019-05-06T09:42:23.204Z,31.10
2019-05-06T09:44:54.015Z,29.80
2019-05-06T09:47:25.852Z,29.60
2019-05-06T09:49:54.945Z,30.90
2019-05-06T09:52:26.290Z,30.50
2019-05-06T09:54:57.832Z,29.20
2019-05-06T09:57:34.526Z,29.40
2019-05-06T10:00:05.025Z,30.30
2019-05-06T10:02:34.133Z,30.90
2019-05-06T10:05:03.694Z,31.50
2019-05-06T10:07:34.020Z,31.90
2019-05-06T10:10:03.250Z,32.10
2019-05-06T10:12:32.901Z,30.80
2019-05-06T10:15:04.197Z,31.60
2019-05-06T10:17:33.306Z,31.60
2019-05-06T10:20:03.078Z,32.00
2019-05-06T10:22:36.098Z,30.70
2019-05-06T10:25:08.081Z,29.50
2019-05-06T10:27:42.127Z,30.30
2019-05-06T10:30:14.777Z,30.70
2019-05-06T10:32:45.596Z,30.40
2019-05-06T10:35:15.092Z,31.00
2019-05-06T10:38:02.972Z,32.40
2019-05-06T10:40:35.089Z,32.20
2019-05-06T10:43:15.960Z,30.90
2019-05-06T10:45:45.058Z,31.20
2019-05-06T10:48:14.149Z,32.10
2019-05-06T10:50:47.645Z,30.80
2019-05-06T10:53:18.391Z,31.20
2019-05-06T10:55:49.195Z,33.60
2019-05-06T10:58:18.321Z,31.90
2019-05-06T11:00:52.760Z,29.50
2019-05-06T11:03:22.815Z,29.10
2019-05-06T11:08:25.037Z,30.00
2019-05-06T11:10:54.125Z,30.50
2019-05-06T11:13:24.482Z,31.10
2019-05-06T11:15:55.597Z,31.60
2019-05-06T11:18:30.143Z,31.30
2019-05-06T11:21:03.451Z,30.80
2019-05-06T11:23:33.766Z,31.20
2019-05-06T11:26:04.042Z,31.10
2019-05-06T11:28:51.874Z,31.70
2019-05-06T11:31:22.984Z,30.90
2019-05-06T11:33:56.835Z,30.60
2019-05-06T11:36:26.644Z,30.60
2019-05-06T11:38:55.656Z,32.40
2019-05-06T11:41:24.835Z,31.70
2019-05-06T11:43:53.941Z,32.30
2019-05-06T11:46:23.230Z,32.70
2019-05-06T11:48:52.407Z,32.70
2019-05-06T11:51:23.197Z,32.70
2019-05-06T11:53:54.190Z,33.20
2019-05-06T11:56:23.294Z,32.90
2019-05-06T11:58:53.924Z,31.30
2019-05-06T12:01:27.527Z,31.40
2019-05-06T12:03:56.620Z,32.30
2019-05-06T12:06:25.817Z,33.10
2019-05-06T12:08:55.104Z,34.50
2019-05-06T12:11:24.209Z,36.10
2019-05-06T12:13:53.492Z,36.60
2019-05-06T12:16:26.046Z,37.30
2019-05-06T12:18:59.787Z,37.30
2019-05-06T12:21:27.961Z,35.00
2019-05-06T12:23:57.371Z,34.40
2019-05-06T12:26:26.459Z,35.70
2019-05-06T12:28:55.655Z,35.50
2019-05-06T12:31:26.903Z,35.80
2019-05-06T12:33:57.022Z,34.00
2019-05-06T12:36:28.496Z,33.10
2019-05-06T12:39:19.547Z,33.70
2019-05-06T12:42:08.652Z,32.80
2019-05-06T12:44:40.911Z,33.90
2019-05-06T12:47:20.656Z,34.00
2019-05-06T12:49:49.759Z,33.20
2019-05-06T12:52:19.813Z,34.80
2019-05-06T12:54:48.972Z,34.20
2019-05-06T12:57:18.161Z,34.20
2019-05-06T12:59:47.255Z,33.70
2019-05-06T13:02:16.454Z,33.60
2019-05-06T13:04:56.276Z,34.50
2019-05-06T13:07:23.447Z,33.60
2019-05-06T13:09:54.097Z,32.80
2019-05-06T13:12:24.765Z,32.40
2019-05-06T13:14:54.053Z,32.90
2019-05-06T13:17:24.741Z,33.40
2019-05-06T13:19:53.837Z,34.00
2019-05-06T13:22:39.526Z,31.90
2019-05-06T13:25:08.848Z,32.20
2019-05-06T13:27:38.016Z,32.60
2019-05-06T13:30:08.756Z,31.30
2019-05-06T13:32:44.814Z,31.30
2019-05-06T13:35:19.395Z,31.90
2019-05-06T13:37:52.805Z,31.80
2019-05-06T13:40:22.994Z,31.20
2019-05-06T13:43:13.358Z,31.30
2019-05-06T13:45:44.201Z,30.20
2019-05-06T13:48:14.913Z,30.80
2019-05-06T13:50:49.909Z,31.30
2019-05-06T13:53:23.011Z,30.60
2019-05-06T13:55:52.771Z,28.90
2019-05-06T13:58:21.835Z,29.80
2019-05-06T14:00:56.958Z,28.90
2019-05-06T14:03:28.632Z,29.10
2019-05-06T14:06:02.852Z,29.60
2019-05-06T14:08:33.009Z,29.30
2019-05-06T14:11:03.025Z,29.00
2019-05-06T14:13:32.803Z,29.10
2019-05-06T14:16:03.976Z,27.80
2019-05-06T14:18:37.654Z,29.40
2019-05-06T14:21:05.909Z,28.70
2019-05-06T14:23:35.111Z,29.10
2019-05-06T14:26:08.775Z,28.60
2019-05-06T14:28:54.795Z,29.90
2019-05-06T14:31:38.059Z,31.60
2019-05-06T14:34:08.558Z,30.70
2019-05-06T14:36:38.159Z,29.30
2019-05-06T14:39:25.288Z,29.50
2019-05-06T14:41:55.980Z,29.50
2019-05-06T14:44:25.838Z,30.10
2019-05-06T14:46:56.474Z,29.80
2019-05-06T14:49:26.825Z,30.00
2019-05-06T14:51:56.421Z,29.30
2019-05-06T14:54:25.781Z,29.80
2019-05-06T14:56:56.501Z,29.90
2019-05-06T14:59:25.783Z,29.70
2019-05-06T15:01:54.890Z,30.00
2019-05-06T15:04:24.265Z,30.10
2019-05-06T15:06:53.574Z,30.10
2019-05-06T15:09:23.355Z,30.10
2019-05-06T15:11:52.781Z,30.70
2019-05-06T15:14:22.676Z,31.50
2019-05-06T15:16:56.844Z,31.50
2019-05-06T15:19:27.495Z,32.00
2019-05-06T15:21:56.857Z,31.80
2019-05-06T15:24:26.086Z,31.60
2019-05-06T15:26:56.814Z,32.20
2019-05-06T15:29:26.324Z,32.40
2019-05-06T15:32:02.559Z,32.50
2019-05-06T15:34:48.732Z,32.60
2019-05-06T15:37:24.631Z,33.40
2019-05-06T15:39:54.153Z,33.60
2019-05-06T15:42:23.571Z,34.00
2019-05-06T15:44:52.776Z,33.70
2019-05-06T15:47:22.707Z,33.70
2019-05-06T15:49:54.543Z,33.90
2019-05-06T15:52:24.146Z,34.20
2019-05-06T15:54:54.497Z,34.30
2019-05-06T15:57:24.067Z,34.30
2019-05-06T15:59:53.601Z,34.30
2019-05-06T16:02:23.356Z,34.00
2019-05-06T16:04:52.971Z,34.80
2019-05-06T16:07:26.102Z,34.00
2019-05-06T16:09:55.522Z,34.70
2019-05-06T16:12:24.767Z,35.00
2019-05-06T16:14:54.127Z,35.70
2019-05-06T16:17:23.918Z,35.40
2019-05-06T16:19:53.463Z,35.90
2019-05-06T16:22:22.865Z,36.40
2019-05-06T16:24:57.813Z,36.00
2019-05-06T16:27:34.380Z,36.30
2019-05-06T16:30:04.104Z,36.20
2019-05-06T16:32:33.482Z,36.60
2019-05-06T16:35:03.927Z,36.80
2019-05-06T16:37:33.082Z,37.10
2019-05-06T16:40:02.917Z,37.30
2019-05-06T16:42:32.449Z,36.60
2019-05-06T16:45:06.868Z,37.10
2019-05-06T16:47:39.288Z,36.50
2019-05-06T16:50:13.552Z,37.00
2019-05-06T16:52:45.555Z,36.60
2019-05-06T16:55:16.294Z,36.80
2019-05-06T16:57:52.450Z,36.20
2019-05-06T17:00:23.273Z,36.70
2019-05-06T17:02:57.979Z,36.70
2019-05-06T17:05:29.624Z,36.60
2019-05-06T17:07:59.387Z,37.50
2019-05-06T17:10:29.262Z,36.40
2019-05-06T17:12:58.752Z,36.40
2019-05-06T17:15:32.209Z,36.40
2019-05-06T17:17:59.503Z,36.50
2019-05-06T17:20:32.685Z,36.30
2019-05-06T17:23:03.010Z,36.90
2019-05-06T17:25:33.567Z,37.70
2019-05-06T17:28:04.617Z,37.90
2019-05-06T17:30:44.353Z,38.00
2019-05-06T17:33:37.791Z,38.20
2019-05-06T17:36:14.687Z,38.50
2019-05-06T17:38:48.922Z,38.70
2019-05-06T17:41:18.240Z,38.70
2019-05-06T17:43:53.572Z,38.90
2019-05-06T17:46:27.111Z,39.50
2019-05-06T17:49:03.811Z,40.10
2019-05-06T17:51:37.309Z,39.60
2019-05-06T17:54:12.353Z,40.40
2019-05-06T17:56:41.987Z,40.70
2019-05-06T17:59:14.246Z,41.00
2019-05-06T18:01:45.307Z,41.40
2019-05-06T18:04:14.898Z,42.10
2019-05-06T18:06:44.161Z,43.00
2019-05-06T18:09:16.242Z,43.80
2019-05-06T18:11:57.824Z,44.20
2019-05-06T18:14:17.766Z,44.50
2019-05-06T18:16:47.403Z,45.10
2019-05-06T18:19:25.748Z,46.40
2019-05-06T18:21:54.950Z,46.50
2019-05-06T18:24:26.932Z,46.90
2019-05-06T18:26:55.731Z,47.20
2019-05-06T18:29:25.005Z,47.80
2019-05-06T18:31:56.720Z,48.10
2019-05-06T18:34:25.786Z,48.90
2019-05-06T18:36:55.901Z,49.20
2019-05-06T18:39:24.899Z,49.00
2019-05-06T18:41:56.754Z,49.50
2019-05-06T18:44:25.845Z,49.70
2019-05-06T18:46:59.705Z,50.30
2019-05-06T18:49:28.754Z,50.60
2019-05-06T18:51:57.902Z,51.60
2019-05-06T18:54:32.752Z,51.90
2019-05-06T18:57:04.341Z,52.40
2019-05-06T18:59:33.315Z,52.70
2019-05-06T19:02:05.898Z,53.40
2019-05-06T19:04:36.636Z,53.60
2019-05-06T19:07:12.879Z,53.80
2019-05-06T19:09:39.117Z,54.40
2019-05-06T19:12:08.317Z,55.30
2019-05-06T19:14:37.770Z,55.70
2019-05-06T19:17:13.008Z,55.80
2019-05-06T19:19:42.899Z,55.80
2019-05-06T19:22:13.960Z,55.90
2019-05-06T19:24:45.154Z,56.30
2019-05-06T19:27:14.353Z,56.50
2019-05-06T19:29:43.856Z,57.00
2019-05-06T19:32:13.464Z,57.20
2019-05-06T19:34:42.558Z,57.70
2019-05-06T19:37:11.655Z,58.20
2019-05-06T19:39:44.647Z,58.30
2019-05-06T19:42:13.732Z,58.20
2019-05-06T19:44:45.479Z,58.50
2019-05-06T19:47:14.894Z,58.60
2019-05-06T19:49:43.898Z,59.30
2019-05-06T19:52:13.042Z,59.10
2019-05-06T19:54:42.554Z,59.10
2019-05-06T19:57:12.452Z,59.40
2019-05-06T19:59:42.623Z,59.40
2019-05-06T20:02:13.569Z,59.40
2019-05-06T20:04:44.716Z,59.50
2019-05-06T20:07:31.926Z,59.90
2019-05-06T20:10:23.007Z,60.00
2019-05-06T20:13:02.676Z,61.10
2019-05-06T20:15:34.034Z,60.90
2019-05-06T20:18:03.730Z,61.20
2019-05-06T20:20:35.006Z,61.50
2019-05-06T20:23:03.844Z,61.90
2019-05-06T20:25:36.368Z,61.90
2019-05-06T20:28:03.843Z,62.00
2019-05-06T20:30:33.921Z,62.30
2019-05-06T20:33:02.927Z,62.50
2019-05-06T20:35:32.670Z,62.70
2019-05-06T20:38:02.774Z,63.70
2019-05-06T20:40:32.714Z,63.20
2019-05-06T20:43:16.622Z,63.40
2019-05-06T20:45:35.546Z,64.00
2019-05-06T20:48:06.338Z,64.70
2019-05-06T20:50:35.660Z,63.40
2019-05-06T20:53:04.890Z,62.10
2019-05-06T20:55:35.765Z,61.00
2019-05-06T20:58:04.916Z,61.00
2019-05-06T21:00:34.012Z,60.90
2019-05-06T21:03:03.206Z,60.70
2019-05-06T21:05:32.417Z,61.00
2019-05-06T21:08:02.623Z,61.00
2019-05-06T21:10:32.976Z,61.00
2019-05-06T21:13:04.301Z,61.80
2019-05-06T21:15:33.392Z,62.10
2019-05-06T21:18:04.429Z,61.70
2019-05-06T21:20:33.243Z,61.30
2019-05-06T21:23:02.544Z,61.10
2019-05-06T21:25:32.270Z,61.00
2019-05-06T21:28:02.941Z,60.70
2019-05-06T21:30:32.418Z,61.30
2019-05-06T21:33:01.768Z,61.60
2019-05-06T21:35:33.526Z,62.90
2019-05-06T21:38:02.718Z,63.80
2019-05-06T21:40:32.315Z,64.60
2019-05-06T21:43:02.072Z,65.30
2019-05-06T21:45:33.072Z,66.20
2019-05-06T21:48:02.801Z,66.60
2019-05-06T21:50:33.065Z,67.10
2019-05-06T21:53:02.937Z,67.50
2019-05-06T21:55:32.417Z,67.30
2019-05-06T21:58:02.341Z,67.40
2019-05-06T22:00:33.465Z,67.60
2019-05-06T22:03:05.245Z,67.80
2019-05-06T22:05:37.156Z,67.30
2019-05-06T22:08:06.196Z,67.50
2019-05-06T22:10:35.294Z,67.90
2019-05-06T22:13:04.418Z,68.00
2019-05-06T22:15:33.681Z,68.10
2019-05-06T22:18:02.778Z,68.20
2019-05-06T22:20:33.339Z,68.30
2019-05-06T22:23:02.401Z,68.40
2019-05-06T22:25:32.664Z,68.50
2019-05-06T22:28:02.474Z,69.20
2019-05-06T22:30:32.869Z,69.60
2019-05-06T22:33:03.644Z,69.90
2019-05-06T22:38:21.790Z,71.20
2019-05-06T22:40:52.861Z,72.80
2019-05-06T22:43:22.007Z,72.90
2019-05-06T22:45:53.196Z,73.50
2019-05-06T22:48:22.844Z,74.20
2019-05-06T22:50:53.048Z,75.00
2019-05-06T22:53:24.763Z,75.70
2019-05-06T22:55:54.240Z,76.00
2019-05-06T22:58:23.315Z,75.90
2019-05-06T23:00:54.068Z,76.70
2019-05-06T23:03:34.566Z,77.00
2019-05-06T23:06:05.448Z,77.30
2019-05-06T23:08:34.643Z,77.80
2019-05-06T23:11:03.745Z,78.60
2019-05-06T23:13:32.777Z,78.20
2019-05-06T23:16:02.056Z,78.70
2019-05-06T23:18:32.077Z,79.00
2019-05-06T23:21:02.462Z,79.10
2019-05-06T23:23:32.880Z,79.40
2019-05-06T23:26:19.094Z,79.50
2019-05-06T23:28:48.292Z,79.90
2019-05-06T23:31:19.704Z,80.00
2019-05-06T23:33:50.688Z,80.20
2019-05-06T23:36:19.876Z,80.30
2019-05-06T23:39:25.426Z,80.60
2019-05-06T23:42:32.338Z,81.00
2019-05-06T23:45:38.059Z,81.30
2019-05-06T23:48:43.516Z,81.50
2019-05-06T23:51:48.954Z,81.40
2019-05-06T23:54:53.991Z,81.20
2019-05-06T23:57:22.527Z,81.40
2019-05-06T23:59:54.591Z,81.60
